Time;durP1;ratioP1;P1;durP2;ratioP2;P2;SDS_P1;SDS_P2;PMS_P1;PMS_P2;Temp;Humidity;BMP_temperature;BMP_pressure;BME280_temperature;BME280_humidity;BME280_pressure;Samples;Min_cycle;Max_cycle;Signal;HPM_P1;HPM_P2
2023/09/15 00:03:00;;;;;;;12.05;3.08;;;14.20;69.40;;;;;;9168038;19;20057;-67
2023/09/15 00:06:08;;;;;;;6.82;3.13;;;14.20;69.50;;;;;;9169474;19;20018;-67
2023/09/15 00:09:14;;;;;;;9.52;3.35;;;14.20;69.50;;;;;;9168317;19;20024;-67
2023/09/15 00:12:31;;;;;;;8.95;3.20;;;14.10;69.50;;;;;;9165193;19;20091;-67
2023/09/15 00:15:37;;;;;;;10.13;2.90;;;14.10;69.60;;;;;;9165335;19;20014;-67
2023/09/15 00:18:44;;;;;;;9.65;3.83;;;14.10;69.60;;;;;;9167504;19;20350;-68
2023/09/15 00:21:50;;;;;;;5.88;2.78;;;14.10;69.70;;;;;;9167957;19;20014;-67
2023/09/15 00:24:57;;;;;;;8.25;3.53;;;14.10;69.80;;;;;;9168480;19;20590;-68
2023/09/15 00:28:09;;;;;;;6.30;2.97;;;14.00;69.80;;;;;;9168592;19;20747;-68
2023/09/15 00:31:16;;;;;;;8.98;3.58;;;14.00;69.90;;;;;;9168259;19;20022;-67
2023/09/15 00:34:23;;;;;;;8.63;3.30;;;14.00;69.80;;;;;;9166406;19;20074;-68
2023/09/15 00:37:30;;;;;;;10.32;3.28;;;14.00;69.90;;;;;;9167553;19;20014;-68
2023/09/15 00:40:36;;;;;;;6.85;3.13;;;13.90;69.90;;;;;;9168086;19;20041;-67
2023/09/15 00:43:46;;;;;;;6.53;2.92;;;13.90;70.00;;;;;;9165830;19;20046;-67
2023/09/15 00:46:52;;;;;;;8.82;4.28;;;13.90;70.00;;;;;;9166828;19;20640;-66
2023/09/15 00:50:00;;;;;;;7.72;3.10;;;13.90;70.10;;;;;;9165399;19;20018;-67
2023/09/15 00:53:14;;;;;;;8.82;3.50;;;13.80;70.10;;;;;;9168476;19;20045;-67
2023/09/15 00:56:21;;;;;;;8.10;3.40;;;13.80;70.20;;;;;;9167187;19;20022;-68
2023/09/15 00:59:32;;;;;;;8.95;3.08;;;13.80;70.20;;;;;;9166211;19;20019;-67
2023/09/15 01:02:39;;;;;;;13.70;3.15;;;13.80;70.30;;;;;;9163436;19;20010;-67
2023/09/15 01:05:47;;;;;;;13.90;2.75;;;13.80;70.30;;;;;;9166542;19;20007;-67
2023/09/15 01:08:55;;;;;;;7.15;3.30;;;13.70;70.30;;;;;;9163644;19;20018;-67
2023/09/15 01:12:00;;;;;;;7.70;3.53;;;13.70;70.30;;;;;;9166209;19;20007;-68
2023/09/15 01:15:11;;;;;;;10.32;3.00;;;13.70;70.30;;;;;;9162376;19;20031;-68
2023/09/15 01:18:22;;;;;;;8.10;2.85;;;13.70;70.40;;;;;;9166512;19;20044;-67
2023/09/15 01:22:05;;;;;;;6.13;2.93;;;13.70;70.50;;;;;;9164340;19;20015;-68
2023/09/15 01:25:31;;;;;;;6.85;3.20;;;13.70;70.60;;;;;;9163138;19;20014;-67
2023/09/15 01:29:05;;;;;;;13.15;3.22;;;13.70;70.60;;;;;;9166799;19;20018;-68
2023/09/15 01:32:15;;;;;;;9.15;3.15;;;13.60;70.60;;;;;;9165212;19;20010;-68
2023/09/15 01:35:22;;;;;;;6.47;3.35;;;13.60;70.50;;;;;;9166286;19;20019;-68
2023/09/15 01:38:27;;;;;;;7.00;3.17;;;13.60;70.50;;;;;;9165028;19;20026;-67
2023/09/15 01:41:35;;;;;;;13.10;3.63;;;13.60;70.60;;;;;;9164710;19;20018;-67
2023/09/15 01:44:41;;;;;;;7.25;3.15;;;13.60;70.70;;;;;;9162842;19;20026;-68
2023/09/15 01:47:52;;;;;;;8.48;3.40;;;13.50;70.60;;;;;;9160922;19;20042;-67
2023/09/15 01:51:00;;;;;;;8.07;3.28;;;13.50;70.70;;;;;;9163050;19;20025;-67
2023/09/15 01:54:08;;;;;;;6.72;3.50;;;13.50;70.70;;;;;;9163678;19;21257;-67
2023/09/15 01:57:14;;;;;;;5.28;2.88;;;13.50;70.70;;;;;;9164636;19;20579;-67
2023/09/15 02:00:22;;;;;;;6.35;3.20;;;13.50;70.80;;;;;;9163637;19;20437;-67
2023/09/15 02:03:30;;;;;;;8.27;3.78;;;13.50;70.80;;;;;;9164010;19;20338;-68
2023/09/15 02:06:37;;;;;;;6.00;3.13;;;13.50;70.90;;;;;;9164928;19;20499;-68
2023/09/15 02:09:42;;;;;;;8.40;3.75;;;13.50;70.90;;;;;;9166229;19;20015;-68
2023/09/15 02:12:50;;;;;;;8.15;3.40;;;13.40;70.90;;;;;;9163383;19;20011;-67
2023/09/15 02:15:55;;;;;;;9.10;2.85;;;13.40;70.90;;;;;;9160905;19;20010;-67
2023/09/15 02:19:06;;;;;;;12.52;4.25;;;13.40;71.00;;;;;;9164640;19;20034;-68
2023/09/15 02:22:12;;;;;;;16.38;4.88;;;13.40;71.10;;;;;;9163533;19;20674;-68
2023/09/15 02:25:20;;;;;;;13.27;3.72;;;13.40;71.00;;;;;;9163608;19;20469;-67
2023/09/15 02:28:26;;;;;;;6.80;3.40;;;13.40;71.10;;;;;;9163956;19;20015;-67
2023/09/15 02:31:34;;;;;;;8.55;2.97;;;13.30;71.10;;;;;;9162497;19;20793;-68
2023/09/15 02:34:42;;;;;;;13.05;3.47;;;13.30;71.10;;;;;;9161795;19;20022;-67
2023/09/15 02:37:49;;;;;;;8.05;2.90;;;13.30;71.20;;;;;;9164044;19;20023;-67
2023/09/15 02:40:55;;;;;;;5.88;3.25;;;13.30;71.20;;;;;;9160251;19;20124;-68
2023/09/15 02:44:02;;;;;;;5.82;3.15;;;13.30;71.20;;;;;;9161802;19;20361;-67
2023/09/15 02:47:08;;;;;;;7.88;3.72;;;13.30;71.30;;;;;;9163067;19;20006;-68
2023/09/15 02:50:18;;;;;;;12.73;3.38;;;13.30;71.40;;;;;;9160441;19;20010;-67
2023/09/15 02:53:23;;;;;;;11.90;3.38;;;13.30;71.40;;;;;;9161293;19;20019;-67
2023/09/15 02:56:31;;;;;;;6.95;3.53;;;13.20;71.30;;;;;;9161464;19;20021;-67
2023/09/15 02:59:36;;;;;;;9.25;3.75;;;13.30;71.50;;;;;;9159596;19;20011;-68
2023/09/15 03:02:44;;;;;;;8.15;3.20;;;13.20;71.40;;;;;;9159875;19;20021;-67
2023/09/15 03:05:53;;;;;;;7.15;3.60;;;13.20;71.50;;;;;;9161242;19;20060;-67
2023/09/15 03:09:00;;;;;;;10.30;3.70;;;13.20;71.50;;;;;;9163646;19;20026;-67
2023/09/15 03:12:06;;;;;;;9.10;3.80;;;13.20;71.50;;;;;;9163862;19;20030;-67
2023/09/15 03:15:13;;;;;;;8.25;3.05;;;13.10;71.50;;;;;;9156514;19;20019;-67
2023/09/15 03:18:19;;;;;;;5.55;3.10;;;13.10;71.60;;;;;;9161450;19;20019;-68
2023/09/15 03:21:30;;;;;;;6.97;3.17;;;13.10;71.70;;;;;;9158042;19;20025;-67
2023/09/15 03:24:36;;;;;;;8.55;3.35;;;13.10;72.60;;;;;;9160114;19;20022;-67
2023/09/15 03:27:44;;;;;;;12.50;3.42;;;13.60;73.40;;;;;;9169695;19;20018;-67
2023/09/15 03:30:50;;;;;;;7.30;3.20;;;13.10;71.70;;;;;;9171830;19;20024;-67
2023/09/15 03:33:58;;;;;;;7.43;3.53;;;13.00;72.90;;;;;;9169887;19;20276;-67
2023/09/15 03:37:07;;;;;;;7.30;3.30;;;13.10;73.00;;;;;;9169018;19;20017;-67
2023/09/15 03:40:17;;;;;;;8.02;3.30;;;13.30;73.40;;;;;;9167516;19;20014;-68
2023/09/15 03:43:23;;;;;;;8.38;3.70;;;13.20;72.00;;;;;;9169480;19;20119;-68
2023/09/15 03:46:30;;;;;;;6.88;3.40;;;13.00;71.80;;;;;;9169760;19;20484;-67
2023/09/15 03:49:36;;;;;;;6.03;3.30;;;13.00;71.80;;;;;;9170144;19;20053;-68
2023/09/15 03:52:46;;;;;;;5.47;3.20;;;13.00;71.90;;;;;;9168658;19;20018;-68
2023/09/15 03:55:52;;;;;;;5.30;3.08;;;13.00;72.00;;;;;;9167788;19;20428;-66
2023/09/15 03:59:00;;;;;;;6.22;3.03;;;12.90;71.90;;;;;;9170990;19;20026;-67
2023/09/15 04:02:07;;;;;;;14.27;4.80;;;12.90;71.90;;;;;;9167562;19;20070;-67
2023/09/15 04:05:15;;;;;;;8.55;3.65;;;12.90;72.10;;;;;;9169208;19;20019;-68
2023/09/15 04:08:23;;;;;;;10.85;4.03;;;12.90;72.10;;;;;;9169259;19;20022;-66
2023/09/15 04:11:31;;;;;;;10.57;3.78;;;12.90;72.10;;;;;;9169924;19;20019;-68
2023/09/15 04:14:39;;;;;;;13.30;3.90;;;12.80;72.10;;;;;;9163097;19;20039;-67
2023/09/15 04:17:47;;;;;;;14.82;2.95;;;12.90;72.10;;;;;;9168407;19;20388;-68
2023/09/15 04:20:53;;;;;;;9.40;3.28;;;12.80;72.10;;;;;;9165551;19;20011;-68
2023/09/15 04:24:03;;;;;;;8.52;3.90;;;12.80;72.20;;;;;;9169236;19;20046;-67
2023/09/15 04:27:08;;;;;;;11.07;3.85;;;12.80;72.20;;;;;;9167663;19;20353;-68
2023/09/15 04:30:16;;;;;;;8.35;3.70;;;12.80;72.20;;;;;;9168389;19;20025;-67
2023/09/15 04:33:29;;;;;;;9.98;4.15;;;12.80;72.30;;;;;;9167855;19;20014;-67
2023/09/15 04:36:37;;;;;;;5.00;3.35;;;12.80;72.20;;;;;;9164225;19;20244;-68
2023/09/15 04:39:46;;;;;;;7.57;4.00;;;12.70;72.20;;;;;;9166393;19;20501;-67
2023/09/15 04:42:53;;;;;;;9.60;3.40;;;13.00;72.70;;;;;;9166453;19;20376;-67
2023/09/15 04:46:00;;;;;;;11.63;4.53;;;12.70;72.30;;;;;;9166494;19;20017;-66
2023/09/15 04:49:08;;;;;;;14.55;4.40;;;12.70;73.10;;;;;;9165344;19;20810;-67
2023/09/15 04:52:14;;;;;;;6.78;3.28;;;12.70;72.40;;;;;;9165589;19;20018;-67
2023/09/15 04:55:25;;;;;;;11.35;4.28;;;12.60;72.40;;;;;;9166267;19;20026;-66
2023/09/15 04:58:31;;;;;;;10.00;3.50;;;12.60;72.50;;;;;;9162876;19;20617;-69
2023/09/15 05:01:39;;;;;;;5.40;3.47;;;12.60;72.50;;;;;;9164707;19;20010;-67
2023/09/15 05:04:45;;;;;;;16.45;4.07;;;12.60;72.50;;;;;;9160139;19;20519;-69
2023/09/15 05:07:53;;;;;;;6.38;4.22;;;12.60;72.60;;;;;;9160540;19;20408;-67
2023/09/15 05:11:03;;;;;;;8.18;4.13;;;12.60;72.60;;;;;;9157819;19;20019;-67
2023/09/15 05:14:11;;;;;;;6.03;3.67;;;12.60;72.70;;;;;;9162979;19;20018;-67
2023/09/15 05:17:18;;;;;;;12.05;4.32;;;12.50;72.60;;;;;;9157031;19;20435;-67
2023/09/15 05:20:25;;;;;;;9.95;3.90;;;12.50;72.60;;;;;;9158077;19;20022;-66
2023/09/15 05:23:31;;;;;;;6.10;3.75;;;12.50;72.70;;;;;;9162287;19;20057;-67
2023/09/15 05:26:41;;;;;;;10.10;4.13;;;12.50;72.70;;;;;;9164853;19;20023;-68
2023/09/15 05:29:47;;;;;;;7.32;3.95;;;12.50;72.80;;;;;;9166868;19;20078;-67
2023/09/15 05:32:55;;;;;;;9.63;4.80;;;12.50;72.80;;;;;;9164852;19;20014;-68
2023/09/15 05:36:01;;;;;;;13.95;4.68;;;12.50;72.80;;;;;;9163575;19;20022;-67
2023/09/15 05:39:08;;;;;;;11.65;3.88;;;12.40;72.80;;;;;;9163409;19;20015;-67
2023/09/15 05:42:16;;;;;;;7.63;3.78;;;12.40;72.90;;;;;;9164067;19;20718;-66
2023/09/15 05:45:24;;;;;;;11.38;4.35;;;12.40;73.00;;;;;;9162818;19;20017;-68
2023/09/15 05:48:29;;;;;;;6.88;3.67;;;12.40;73.00;;;;;;9162497;19;20018;-67
2023/09/15 05:51:37;;;;;;;10.93;3.72;;;12.40;73.00;;;;;;9161613;19;20412;-68
2023/09/15 05:54:42;;;;;;;12.73;3.95;;;12.40;73.00;;;;;;9164417;19;20664;-67
2023/09/15 05:57:52;;;;;;;11.77;3.85;;;12.40;73.10;;;;;;9165592;19;20059;-67
2023/09/15 06:00:58;;;;;;;12.40;3.45;;;12.40;73.20;;;;;;9164471;19;20049;-67
2023/09/15 06:04:07;;;;;;;8.20;4.20;;;12.30;73.10;;;;;;9161987;19;20492;-68
2023/09/15 06:07:13;;;;;;;8.05;3.70;;;12.40;73.20;;;;;;9165436;19;20348;-67
2023/09/15 06:10:20;;;;;;;8.70;4.28;;;12.40;73.20;;;;;;9164238;19;20019;-67
2023/09/15 06:13:28;;;;;;;7.10;4.40;;;12.40;73.30;;;;;;9161998;19;20074;-67
2023/09/15 06:16:39;;;;;;;10.07;4.35;;;12.50;73.50;;;;;;9157694;19;20480;-67
2023/09/15 06:19:45;;;;;;;10.82;4.45;;;12.50;73.50;;;;;;9164641;19;20117;-67
2023/09/15 06:22:52;;;;;;;10.00;4.53;;;12.50;73.60;;;;;;9160988;19;20022;-67
2023/09/15 06:25:57;;;;;;;12.02;4.57;;;12.60;73.70;;;;;;9164126;19;20018;-67
2023/09/15 06:29:08;;;;;;;9.98;4.35;;;12.70;73.90;;;;;;9162772;19;20022;-67
2023/09/15 06:32:13;;;;;;;9.52;3.75;;;12.80;74.00;;;;;;9163384;19;20022;-67
2023/09/15 06:35:20;;;;;;;7.13;3.78;;;12.90;74.10;;;;;;9162473;19;20057;-67
2023/09/15 06:38:26;;;;;;;13.38;4.15;;;13.00;74.10;;;;;;9161756;19;20575;-67
2023/09/15 06:41:33;;;;;;;10.40;3.67;;;13.10;74.10;;;;;;9160153;19;20025;-67
2023/09/15 06:44:41;;;;;;;9.95;3.75;;;13.30;74.20;;;;;;9159946;19;20102;-68
2023/09/15 06:47:48;;;;;;;7.00;3.40;;;13.40;74.20;;;;;;9161431;19;20010;-67
2023/09/15 06:50:54;;;;;;;7.68;3.85;;;13.50;74.10;;;;;;9161384;19;20011;-67
2023/09/15 06:54:01;;;;;;;9.45;3.50;;;13.60;74.00;;;;;;9162936;19;20015;-68
2023/09/15 06:57:07;;;;;;;7.75;3.75;;;13.70;74.70;;;;;;9160327;19;20014;-68
2023/09/15 07:00:18;;;;;;;5.80;3.20;;;13.90;74.10;;;;;;9165405;19;20026;-67
2023/09/15 07:03:24;;;;;;;5.32;2.70;;;14.00;74.10;;;;;;9166275;19;20018;-67
2023/09/15 07:06:31;;;;;;;16.98;3.83;;;14.10;74.00;;;;;;9170256;19;20022;-67
2023/09/15 07:09:37;;;;;;;12.27;5.05;;;14.20;74.10;;;;;;9172120;19;20041;-67
2023/09/15 07:12:44;;;;;;;9.52;3.42;;;14.40;74.00;;;;;;9171744;19;20018;-67
2023/09/15 07:15:52;;;;;;;8.35;3.53;;;14.50;74.00;;;;;;9137836;19;20025;-67
2023/09/15 07:19:01;;;;;;;7.43;3.60;;;14.60;74.00;;;;;;9157744;19;20018;-67
2023/09/15 07:22:06;;;;;;;7.35;2.90;;;14.70;73.80;;;;;;9167116;19;20022;-68
2023/09/15 07:25:17;;;;;;;13.50;3.42;;;14.80;73.80;;;;;;9143841;19;20430;-67
2023/09/15 07:28:22;;;;;;;11.07;3.63;;;14.90;73.80;;;;;;9149743;19;20021;-67
2023/09/15 07:31:36;;;;;;;8.38;3.28;;;15.00;73.80;;;;;;9147423;19;20335;-67
2023/09/15 07:34:41;;;;;;;17.33;4.00;;;15.10;73.80;;;;;;9168148;19;20057;-67
2023/09/15 07:37:48;;;;;;;7.45;3.47;;;15.10;73.70;;;;;;9167954;19;20345;-67
2023/09/15 07:40:54;;;;;;;4.63;3.03;;;15.20;73.70;;;;;;9169640;19;20018;-67
2023/09/15 07:44:02;;;;;;;7.78;3.00;;;15.30;73.80;;;;;;9165803;19;20010;-67
2023/09/15 07:47:14;;;;;;;9.00;3.30;;;15.30;73.80;;;;;;9169722;19;20077;-70
2023/09/15 07:50:22;;;;;;;10.13;2.97;;;15.40;73.80;;;;;;9106365;19;20022;-69
2023/09/15 07:53:27;;;;;;;8.57;3.67;;;15.40;73.80;;;;;;9152253;19;20359;-67
2023/09/15 07:56:36;;;;;;;12.60;3.38;;;15.50;73.90;;;;;;9143729;19;20483;-67
2023/09/15 07:59:42;;;;;;;10.25;3.08;;;15.60;74.00;;;;;;9168943;19;20011;-68
2023/09/15 08:02:53;;;;;;;7.18;3.70;;;15.70;74.20;;;;;;9166363;19;20014;-68
2023/09/15 08:06:02;;;;;;;12.73;4.10;;;15.70;74.50;;;;;;9166525;19;20022;-69
2023/09/15 08:09:10;;;;;;;8.23;3.40;;;15.80;74.10;;;;;;9166774;19;20018;-68
2023/09/15 08:12:18;;;;;;;10.05;3.25;;;15.90;74.10;;;;;;9163881;19;20078;-68
2023/09/15 08:15:26;;;;;;;12.10;3.17;;;16.10;74.20;;;;;;9158026;19;20531;-69
2023/09/15 08:18:34;;;;;;;9.98;3.65;;;16.20;74.10;;;;;;9160158;19;20014;-67
2023/09/15 08:21:42;;;;;;;11.77;3.35;;;16.40;74.10;;;;;;9162065;19;20018;-68
2023/09/15 08:24:48;;;;;;;9.75;3.85;;;16.50;74.00;;;;;;9160538;19;20014;-67
2023/09/15 08:27:56;;;;;;;7.05;3.13;;;16.70;74.20;;;;;;9160773;19;20029;-67
2023/09/15 08:31:01;;;;;;;7.57;3.22;;;16.90;74.30;;;;;;9163006;19;20439;-66
2023/09/15 08:34:12;;;;;;;8.00;2.80;;;17.10;74.10;;;;;;9163686;19;20015;-68
2023/09/15 08:37:17;;;;;;;9.02;3.47;;;17.30;74.10;;;;;;9159443;19;20033;-68
2023/09/15 08:40:24;;;;;;;7.07;3.15;;;17.50;74.50;;;;;;9162125;19;20011;-69
2023/09/15 08:43:31;;;;;;;9.45;3.03;;;17.70;74.00;;;;;;9159636;19;20126;-67
2023/09/15 08:46:43;;;;;;;9.23;3.70;;;18.00;73.80;;;;;;9159744;19;20354;-68
2023/09/15 08:49:51;;;;;;;10.35;3.13;;;18.20;73.60;;;;;;9158875;19;20022;-68
2023/09/15 08:53:01;;;;;;;9.27;3.30;;;18.60;74.10;;;;;;9159224;19;20014;-68
2023/09/15 08:56:08;;;;;;;9.07;2.80;;;18.70;73.40;;;;;;9163851;19;20197;-69
2023/09/15 08:59:17;;;;;;;11.18;2.85;;;19.10;72.90;;;;;;9166068;19;20018;-68
2023/09/15 09:02:24;;;;;;;11.07;4.18;;;19.30;73.00;;;;;;9166928;19;20649;-68
2023/09/15 09:05:37;;;;;;;13.77;3.40;;;19.60;72.50;;;;;;9167127;19;20019;-70
2023/09/15 09:08:46;;;;;;;8.82;3.30;;;19.80;72.10;;;;;;9166265;19;20480;-70
2023/09/15 09:11:54;;;;;;;6.03;2.67;;;19.70;72.00;;;;;;9166726;19;20021;-67
2023/09/15 09:15:02;;;;;;;10.75;3.30;;;20.30;72.30;;;;;;9164305;19;20014;-69
2023/09/15 09:18:19;;;;;;;7.22;2.55;;;20.50;71.40;;;;;;9167676;19;20018;-68
2023/09/15 09:21:32;;;;;;;6.63;2.90;;;20.90;71.20;;;;;;9166205;19;20820;-68
2023/09/15 09:24:42;;;;;;;14.27;3.58;;;21.00;71.00;;;;;;9162722;19;20490;-68
2023/09/15 09:27:48;;;;;;;8.13;2.17;;;21.20;71.10;;;;;;9166886;19;20032;-67
2023/09/15 09:30:57;;;;;;;6.72;2.83;;;21.40;70.50;;;;;;9167129;19;20006;-67
2023/09/15 09:34:04;;;;;;;10.88;2.00;;;21.70;70.20;;;;;;9165945;19;20026;-68
2023/09/15 09:37:15;;;;;;;10.85;1.92;;;21.90;70.50;;;;;;9164385;19;20082;-68
2023/09/15 09:40:23;;;;;;;7.57;2.33;;;22.10;69.40;;;;;;9166550;19;20022;-68
2023/09/15 09:43:32;;;;;;;5.05;1.95;;;22.30;69.10;;;;;;9163778;19;20519;-69
2023/09/15 09:46:39;;;;;;;9.45;1.80;;;22.40;68.90;;;;;;9166793;19;20104;-69
2023/09/15 09:49:47;;;;;;;5.93;2.13;;;22.60;68.60;;;;;;9163709;19;20786;-69
2023/09/15 09:52:56;;;;;;;5.38;1.95;;;22.80;68.30;;;;;;9164617;19;20460;-68
2023/09/15 09:56:03;;;;;;;5.70;1.75;;;22.10;68.00;;;;;;9164426;19;20474;-67
2023/09/15 09:59:12;;;;;;;8.43;2.40;;;23.00;67.50;;;;;;9164122;19;20029;-68
2023/09/15 10:02:20;;;;;;;6.13;1.95;;;23.20;67.30;;;;;;9162762;19;20022;-67
2023/09/15 10:05:30;;;;;;;5.07;1.98;;;23.30;67.20;;;;;;9162034;19;20053;-67
2023/09/15 10:08:43;;;;;;;10.45;2.70;;;23.10;67.20;;;;;;9163178;19;20356;-69
2023/09/15 10:11:50;;;;;;;7.35;2.28;;;23.60;66.50;;;;;;9162799;19;20374;-69
2023/09/15 10:14:58;;;;;;;3.92;1.73;;;23.70;66.70;;;;;;9157341;19;20015;-68
2023/09/15 10:18:05;;;;;;;5.78;1.65;;;23.90;66.00;;;;;;9164002;19;20061;-68
2023/09/15 10:21:13;;;;;;;6.38;1.80;;;24.00;65.80;;;;;;9164574;19;20049;-70
2023/09/15 10:24:20;;;;;;;7.82;1.60;;;24.20;65.50;;;;;;9161573;19;20014;-69
2023/09/15 10:27:30;;;;;;;3.72;1.33;;;24.10;64.30;;;;;;9162255;19;20010;-68
2023/09/15 10:30:37;;;;;;;8.30;2.38;;;24.40;64.80;;;;;;9162305;19;20022;-69
2023/09/15 10:33:45;;;;;;;5.85;1.80;;;24.60;64.60;;;;;;9158066;19;20019;-68
2023/09/15 10:36:52;;;;;;;4.57;1.83;;;24.60;64.40;;;;;;9169100;19;20345;-68
2023/09/15 10:40:02;;;;;;;5.25;1.92;;;24.80;64.20;;;;;;9172639;19;20010;-68
2023/09/15 10:43:10;;;;;;;6.25;2.35;;;24.90;63.70;;;;;;9172436;19;20023;-71
2023/09/15 10:46:18;;;;;;;7.60;2.40;;;25.00;63.50;;;;;;9172849;19;20024;-69
2023/09/15 10:49:23;;;;;;;5.22;2.20;;;25.00;63.20;;;;;;9171766;19;20814;-69
2023/09/15 10:52:35;;;;;;;4.15;1.90;;;25.10;62.90;;;;;;9171722;19;20015;-68
2023/09/15 10:55:43;;;;;;;5.05;2.20;;;25.20;63.10;;;;;;9171748;19;20507;-68
2023/09/15 10:58:51;;;;;;;9.88;2.15;;;25.30;63.00;;;;;;9170260;19;20014;-68
2023/09/15 11:01:57;;;;;;;6.15;2.33;;;25.30;62.30;;;;;;9170549;19;20922;-68
2023/09/15 11:05:06;;;;;;;5.88;2.03;;;25.40;62.10;;;;;;9167480;19;20018;-69
2023/09/15 11:08:12;;;;;;;5.50;2.05;;;25.40;61.70;;;;;;9170667;19;20026;-69
2023/09/15 11:11:22;;;;;;;6.05;1.95;;;25.50;61.60;;;;;;9172116;19;20018;-68
2023/09/15 11:14:27;;;;;;;3.88;1.75;;;25.50;61.40;;;;;;9167320;19;20440;-69
2023/09/15 11:17:35;;;;;;;5.75;2.10;;;25.70;61.90;;;;;;9169688;19;20010;-70
2023/09/15 11:20:40;;;;;;;5.88;2.15;;;25.70;61.30;;;;;;9171958;19;20060;-69
2023/09/15 11:23:48;;;;;;;5.57;2.20;;;25.70;61.00;;;;;;9170664;19;20010;-69
2023/09/15 11:26:56;;;;;;;6.00;2.40;;;25.80;60.80;;;;;;9171394;19;20015;-69
2023/09/15 11:30:05;;;;;;;12.95;2.90;;;25.80;60.40;;;;;;9171460;19;20637;-69
2023/09/15 11:33:10;;;;;;;10.50;2.90;;;25.80;60.40;;;;;;9171524;19;20025;-69
2023/09/15 11:36:18;;;;;;;6.45;2.80;;;25.80;60.20;;;;;;9169920;19;20006;-68
2023/09/15 11:39:26;;;;;;;10.95;2.70;;;25.90;60.10;;;;;;9170852;19;20015;-68
2023/09/15 11:42:36;;;;;;;5.03;2.17;;;25.90;59.80;;;;;;9170860;19;20034;-71
2023/09/15 11:45:43;;;;;;;8.68;2.63;;;26.00;59.70;;;;;;9165064;19;20015;-70
2023/09/15 11:48:52;;;;;;;7.10;2.22;;;25.90;59.60;;;;;;9170007;19;20021;-68
2023/09/15 11:51:59;;;;;;;6.47;2.17;;;26.00;59.60;;;;;;9170593;19;20532;-69
2023/09/15 11:55:07;;;;;;;10.02;2.35;;;26.00;59.60;;;;;;9170172;19;20038;-68
2023/09/15 11:58:14;;;;;;;7.35;2.15;;;26.00;59.50;;;;;;9168004;19;20026;-67
2023/09/15 12:01:23;;;;;;;8.93;2.92;;;26.10;59.30;;;;;;9167706;19;20010;-69
2023/09/15 12:04:29;;;;;;;8.13;2.45;;;26.10;59.20;;;;;;9164754;19;20112;-68
2023/09/15 12:07:37;;;;;;;7.45;2.25;;;26.20;59.10;;;;;;9167009;19;20018;-67
2023/09/15 12:10:46;;;;;;;10.07;2.70;;;26.20;59.60;;;;;;9169550;19;20097;-69
2023/09/15 12:14:10;;;;;;;6.30;3.05;;;26.30;61.10;;;;;;9168941;19;20027;-66
2023/09/15 12:17:16;;;;;;;8.18;2.65;;;26.30;58.60;;;;;;9164169;19;20021;-68
2023/09/15 12:20:25;;;;;;;8.07;2.72;;;26.30;58.60;;;;;;9166330;19;20492;-68
2023/09/15 12:23:31;;;;;;;6.97;2.25;;;26.30;58.40;;;;;;9165354;19;20019;-67
2023/09/15 12:26:42;;;;;;;12.02;3.13;;;26.30;58.30;;;;;;9166437;19;20468;-68
2023/09/15 12:29:50;;;;;;;5.78;2.20;;;26.30;58.10;;;;;;9166735;19;20010;-67
2023/09/15 12:32:57;;;;;;;11.05;2.45;;;26.40;57.90;;;;;;9166745;19;20350;-67
2023/09/15 12:36:06;;;;;;;11.55;2.83;;;26.40;58.00;;;;;;9167449;19;20026;-68
2023/09/15 12:39:14;;;;;;;10.55;3.08;;;26.40;57.80;;;;;;9166913;19;20038;-67
2023/09/15 12:42:19;;;;;;;5.97;2.20;;;26.30;57.70;;;;;;9166083;19;20495;-66
2023/09/15 12:45:29;;;;;;;8.00;3.10;;;26.40;57.60;;;;;;9166071;19;20014;-68
2023/09/15 12:48:35;;;;;;;6.00;2.38;;;26.40;57.40;;;;;;9168172;19;20025;-67
2023/09/15 12:51:42;;;;;;;5.97;2.42;;;26.40;57.50;;;;;;9162619;19;20669;-68
2023/09/15 12:54:49;;;;;;;5.78;2.60;;;26.40;57.40;;;;;;9167087;19;20023;-70
2023/09/15 12:57:56;;;;;;;5.60;2.30;;;26.40;57.30;;;;;;9162302;19;20022;-67
2023/09/15 13:01:05;;;;;;;7.22;3.22;;;26.40;57.30;;;;;;9167844;19;20128;-69
2023/09/15 13:04:12;;;;;;;9.07;2.65;;;26.30;57.10;;;;;;9166497;19;20014;-68
2023/09/15 13:07:18;;;;;;;8.40;2.25;;;26.40;57.20;;;;;;9167122;19;20014;-68
2023/09/15 13:10:25;;;;;;;7.47;2.50;;;26.30;56.80;;;;;;9165272;19;20014;-69
2023/09/15 13:13:30;;;;;;;6.00;2.30;;;26.30;56.80;;;;;;9165194;19;20027;-67
2023/09/15 13:16:40;;;;;;;5.10;2.22;;;26.20;56.70;;;;;;9162371;19;20014;-68
2023/09/15 13:19:46;;;;;;;6.95;1.88;;;26.20;56.60;;;;;;9165432;19;21034;-67
2023/09/15 13:22:53;;;;;;;10.02;2.50;;;26.20;57.10;;;;;;9164283;19;20046;-69
2023/09/15 13:26:00;;;;;;;6.65;2.65;;;26.20;59.30;;;;;;9164063;19;20710;-68
2023/09/15 13:29:07;;;;;;;4.63;2.00;;;26.00;56.50;;;;;;9164008;19;20487;-68
2023/09/15 13:32:15;;;;;;;8.52;2.92;;;26.00;56.50;;;;;;9164052;19;20355;-68
2023/09/15 13:35:23;;;;;;;8.05;2.40;;;26.00;56.60;;;;;;9165230;19;20014;-68
2023/09/15 13:38:28;;;;;;;5.45;2.20;;;26.00;56.50;;;;;;9163948;19;20389;-67
2023/09/15 13:41:36;;;;;;;6.63;2.50;;;25.90;56.40;;;;;;9163937;19;20022;-70
2023/09/15 13:44:41;;;;;;;7.55;2.28;;;25.90;56.30;;;;;;9163967;19;20449;-68
2023/09/15 13:47:51;;;;;;;5.78;2.28;;;25.80;56.30;;;;;;9164511;19;20025;-68
2023/09/15 13:50:57;;;;;;;9.18;2.80;;;25.80;56.90;;;;;;9162210;19;20086;-68
2023/09/15 13:54:05;;;;;;;9.90;2.90;;;25.80;56.30;;;;;;9164748;19;20248;-68
2023/09/15 13:57:10;;;;;;;11.13;2.65;;;25.80;56.40;;;;;;9165251;19;20010;-69
2023/09/15 14:00:33;;;;;;;5.75;2.53;;;25.70;56.40;;;;;;9164203;19;20015;-68
2023/09/15 14:03:44;;;;;;;5.55;2.08;;;25.60;56.10;;;;;;9161901;19;20056;-68
2023/09/15 14:06:52;;;;;;;8.23;2.57;;;25.60;56.00;;;;;;9162605;19;20020;-68
2023/09/15 14:09:57;;;;;;;8.85;2.88;;;25.50;56.20;;;;;;9161898;19;20025;-68
2023/09/15 14:13:05;;;;;;;3.78;2.40;;;25.50;56.30;;;;;;9161853;19;20014;-69
2023/09/15 14:16:11;;;;;;;8.38;2.60;;;25.50;56.30;;;;;;9156325;19;20483;-67
2023/09/15 14:19:21;;;;;;;7.32;2.88;;;25.40;56.30;;;;;;9164530;19;20026;-68
2023/09/15 14:22:27;;;;;;;4.70;2.00;;;25.40;56.30;;;;;;9162018;19;20467;-68
2023/09/15 14:25:34;;;;;;;7.43;2.70;;;25.40;56.30;;;;;;9163627;19;20014;-68
2023/09/15 14:28:39;;;;;;;7.07;2.55;;;25.40;56.30;;;;;;9164443;19;20078;-68
2023/09/15 14:31:47;;;;;;;5.20;2.63;;;25.30;56.20;;;;;;9162184;19;20018;-69
2023/09/15 14:34:55;;;;;;;9.00;2.65;;;25.30;56.20;;;;;;9165298;19;20024;-68
2023/09/15 14:38:02;;;;;;;4.50;2.92;;;25.20;56.20;;;;;;9163528;19;20513;-70
2023/09/15 14:41:08;;;;;;;8.95;2.58;;;25.20;56.20;;;;;;9163983;19;20695;-68
2023/09/15 14:44:20;;;;;;;5.05;2.70;;;25.20;56.30;;;;;;9162519;19;20026;-67
2023/09/15 14:47:26;;;;;;;5.35;2.53;;;25.10;56.50;;;;;;9159530;19;20019;-68
2023/09/15 14:50:36;;;;;;;5.88;2.75;;;25.10;56.20;;;;;;9161080;19;20716;-69
2023/09/15 14:53:41;;;;;;;5.00;2.33;;;25.10;56.20;;;;;;9160643;19;20026;-68
2023/09/15 14:56:49;;;;;;;5.53;2.25;;;25.00;56.40;;;;;;9160741;19;20010;-68
2023/09/15 14:59:54;;;;;;;7.50;2.72;;;25.00;56.40;;;;;;9162074;19;20022;-67
2023/09/15 15:03:03;;;;;;;6.88;2.50;;;25.00;56.30;;;;;;9160096;19;20011;-68
2023/09/15 15:06:13;;;;;;;9.63;2.55;;;25.00;56.40;;;;;;9160420;19;20056;-69
2023/09/15 15:09:20;;;;;;;7.75;2.42;;;24.90;56.20;;;;;;9162237;19;20337;-68
2023/09/15 15:12:25;;;;;;;7.20;2.28;;;24.80;56.30;;;;;;9160417;19;20465;-69
2023/09/15 15:15:44;;;;;;;4.13;2.38;;;24.80;56.40;;;;;;9157647;19;20468;-68
2023/09/15 15:18:50;;;;;;;7.38;2.28;;;24.70;56.30;;;;;;9162011;19;20022;-68
2023/09/15 15:22:11;;;;;;;5.38;1.85;;;24.70;56.40;;;;;;9165771;19;20013;-68
2023/09/15 15:25:17;;;;;;;8.52;3.83;;;24.70;56.40;;;;;;9167226;19;20011;-68
2023/09/15 15:28:25;;;;;;;4.38;1.92;;;24.60;56.40;;;;;;9167337;19;20014;-69
2023/09/15 15:31:33;;;;;;;3.92;2.08;;;24.60;56.50;;;;;;9168781;19;20411;-68
2023/09/15 15:34:41;;;;;;;8.40;2.60;;;24.50;56.50;;;;;;9170151;19;20926;-68
2023/09/15 15:37:51;;;;;;;4.75;2.65;;;24.50;56.50;;;;;;9169846;19;20500;-69
2023/09/15 15:41:02;;;;;;;6.47;2.78;;;24.50;56.60;;;;;;9168196;19;20021;-69
2023/09/15 15:44:11;;;;;;;5.30;2.55;;;24.40;57.00;;;;;;9167207;19;20584;-67
2023/09/15 15:47:18;;;;;;;6.90;2.80;;;24.40;57.40;;;;;;9167562;19;20098;-68
2023/09/15 15:50:24;;;;;;;7.28;2.60;;;24.30;56.70;;;;;;9168054;19;20484;-67
2023/09/15 15:53:38;;;;;;;7.38;2.42;;;24.20;56.80;;;;;;9167537;19;20420;-70
2023/09/15 15:56:44;;;;;;;6.78;2.65;;;24.10;56.90;;;;;;9166515;19;20019;-71
2023/09/15 15:59:51;;;;;;;8.73;3.03;;;24.00;57.00;;;;;;9161528;19;20002;-67
2023/09/15 16:02:57;;;;;;;4.57;2.40;;;23.90;58.00;;;;;;9160640;19;20014;-70
2023/09/15 16:06:04;;;;;;;3.30;1.77;;;23.80;57.10;;;;;;9161563;19;20019;-67
2023/09/15 16:09:12;;;;;;;6.65;2.10;;;23.80;57.30;;;;;;9154871;19;20379;-70
2023/09/15 16:12:20;;;;;;;5.80;2.63;;;23.70;57.40;;;;;;9166255;19;20017;-70
2023/09/15 16:15:25;;;;;;;5.65;2.65;;;23.60;57.50;;;;;;9164581;19;20036;-71
2023/09/15 16:18:32;;;;;;;4.50;2.05;;;23.60;58.70;;;;;;9166715;19;20030;-71